createdAt,value
2019-05-18T00:01:45.791Z,3.87
2019-05-18T00:06:49.951Z,4.20
2019-05-18T00:11:54.543Z,6.17
2019-05-18T00:16:58.684Z,4.33
2019-05-18T00:22:02.848Z,3.20
2019-05-18T00:27:07.039Z,4.28
2019-05-18T00:32:11.214Z,3.42
2019-05-18T00:37:15.373Z,3.50
2019-05-18T00:42:19.540Z,3.08
2019-05-18T00:47:23.721Z,4.47
2019-05-18T00:52:27.877Z,4.72
2019-05-18T00:57:32.034Z,3.90
2019-05-18T01:02:36.295Z,4.17
2019-05-18T01:07:40.471Z,4.12
2019-05-18T01:12:44.637Z,4.55
2019-05-18T01:17:56.935Z,5.03
2019-05-18T01:22:54.794Z,12.15
2019-05-18T01:27:58.981Z,6.20
2019-05-18T01:33:03.414Z,3.67
2019-05-18T01:38:07.570Z,3.72
2019-05-18T01:43:11.765Z,5.20
2019-05-18T01:48:15.920Z,2.90
2019-05-18T01:53:20.088Z,4.35
2019-05-18T01:58:24.271Z,4.25
2019-05-18T02:03:28.599Z,4.28
2019-05-18T02:08:32.785Z,5.10
2019-05-18T02:13:36.947Z,4.40
2019-05-18T02:18:41.111Z,5.05
2019-05-18T02:23:45.279Z,3.67
2019-05-18T02:28:49.451Z,3.17
2019-05-18T02:33:53.686Z,4.15
2019-05-18T02:38:57.851Z,4.08
2019-05-18T02:44:03.651Z,4.08
2019-05-18T02:49:07.824Z,5.10
2019-05-18T02:54:12.237Z,4.12
2019-05-18T02:59:16.431Z,2.80
2019-05-18T03:04:20.593Z,3.20
2019-05-18T03:09:24.775Z,4.22
2019-05-18T03:14:35.342Z,4.17
2019-05-18T03:19:39.512Z,3.33
2019-05-18T03:24:43.723Z,4.10
2019-05-18T03:29:49.539Z,4.22
2019-05-18T03:34:53.725Z,3.08
2019-05-18T03:39:57.864Z,3.62
2019-05-18T03:45:02.055Z,4.17
2019-05-18T03:50:07.632Z,3.85
2019-05-18T03:55:11.977Z,3.47
2019-05-18T04:00:16.131Z,3.33
2019-05-18T04:05:20.330Z,3.25
2019-05-18T04:10:26.494Z,3.72
2019-05-18T04:15:30.651Z,4.40
2019-05-18T04:20:34.811Z,3.83
2019-05-18T04:25:42.937Z,3.52
2019-05-18T04:30:44.939Z,3.52
2019-05-18T04:35:49.073Z,4.15
2019-05-18T04:40:53.243Z,3.02
2019-05-18T04:45:57.452Z,3.85
2019-05-18T04:51:01.609Z,3.27
2019-05-18T04:56:05.789Z,5.17
2019-05-18T05:01:09.969Z,3.17
2019-05-18T05:06:14.398Z,3.17
2019-05-18T05:11:21.697Z,5.90
2019-05-18T05:16:25.886Z,3.87
2019-05-18T05:21:32.490Z,2.80
2019-05-18T05:26:39.320Z,2.90
2019-05-18T05:31:42.591Z,3.85
2019-05-18T05:36:46.843Z,2.58
2019-05-18T05:41:51.074Z,2.70
2019-05-18T05:46:55.264Z,3.00
2019-05-18T05:51:59.873Z,3.02
2019-05-18T05:57:04.260Z,2.50
2019-05-18T06:02:08.639Z,3.15
2019-05-18T06:07:12.856Z,2.60
2019-05-18T06:12:17.063Z,2.55
2019-05-18T06:17:21.224Z,3.77
2019-05-18T06:22:25.379Z,3.00
2019-05-18T06:27:29.588Z,2.60
2019-05-18T06:32:33.859Z,3.52
2019-05-18T06:37:38.036Z,2.87
2019-05-18T06:42:42.213Z,2.62
2019-05-18T06:47:48.381Z,2.55
2019-05-18T06:52:52.303Z,2.27
2019-05-18T06:57:58.285Z,2.40
2019-05-18T07:03:02.728Z,3.05
2019-05-18T07:08:06.843Z,5.20
2019-05-18T07:13:11.054Z,7.53
2019-05-18T07:18:15.260Z,5.05
2019-05-18T07:23:19.428Z,5.58
2019-05-18T07:28:23.636Z,3.50
2019-05-18T07:33:27.841Z,3.87
2019-05-18T07:38:32.023Z,5.33
2019-05-18T07:43:36.190Z,4.42
2019-05-18T07:48:40.395Z,3.47
2019-05-18T07:53:44.580Z,3.20
2019-05-18T07:58:48.750Z,2.77
2019-05-18T08:03:52.948Z,4.10
2019-05-18T08:08:57.153Z,3.47
2019-05-18T08:14:01.347Z,2.62
2019-05-18T08:19:05.528Z,26.52
2019-05-18T08:24:09.939Z,6.67
2019-05-18T08:29:14.298Z,5.97
2019-05-18T08:34:18.655Z,5.60
2019-05-18T08:39:23.047Z,6.83
2019-05-18T08:44:27.392Z,4.83
2019-05-18T08:49:31.742Z,3.17
2019-05-18T08:54:36.079Z,3.60
2019-05-18T08:59:40.431Z,4.30
2019-05-18T09:04:44.765Z,3.72
2019-05-18T09:09:49.160Z,4.05
2019-05-18T09:14:55.092Z,4.60
2019-05-18T09:19:59.466Z,5.10
2019-05-18T09:25:07.200Z,2.75
2019-05-18T09:30:12.271Z,19.12
2019-05-18T09:35:17.251Z,33.58
2019-05-18T09:40:22.998Z,33.78
2019-05-18T09:45:27.361Z,29.07
2019-05-18T09:50:31.730Z,26.95
2019-05-18T09:55:36.066Z,28.10
2019-05-18T10:00:40.427Z,29.50
2019-05-18T10:05:44.973Z,30.10
2019-05-18T10:10:49.317Z,31.37
2019-05-18T10:15:53.674Z,25.82
2019-05-18T10:20:58.023Z,29.35
2019-05-18T10:26:02.394Z,31.00
2019-05-18T10:31:06.756Z,28.35
2019-05-18T10:36:11.783Z,31.00
2019-05-18T10:41:16.482Z,31.80
2019-05-18T10:46:20.854Z,28.70
2019-05-18T10:51:25.231Z,22.75
2019-05-18T10:56:31.271Z,27.13
2019-05-18T11:01:35.806Z,24.57
2019-05-18T11:06:40.398Z,22.17
2019-05-18T11:11:44.745Z,22.40
2019-05-18T11:16:49.100Z,20.40
2019-05-18T11:21:53.468Z,26.65
2019-05-18T11:26:57.839Z,23.42
2019-05-18T11:32:02.214Z,20.85
2019-05-18T11:37:06.621Z,23.73
2019-05-18T11:42:10.981Z,20.52
2019-05-18T11:47:15.340Z,17.62
2019-05-18T11:52:19.702Z,18.48
2019-05-18T11:57:24.124Z,23.42
2019-05-18T12:02:28.525Z,15.70
2019-05-18T12:07:32.893Z,14.25
2019-05-18T12:12:37.276Z,14.23
2019-05-18T12:17:41.640Z,12.15
2019-05-18T12:22:46.011Z,16.40
2019-05-18T12:27:50.376Z,9.95
2019-05-18T12:32:54.748Z,11.40
2019-05-18T12:37:59.153Z,12.35
2019-05-18T12:43:03.517Z,10.68
2019-05-18T12:48:07.940Z,12.70
2019-05-18T12:53:13.220Z,12.05
2019-05-18T12:58:17.536Z,9.98
2019-05-18T13:03:22.151Z,8.90
2019-05-18T13:08:26.512Z,15.13
2019-05-18T13:13:30.884Z,12.45
2019-05-18T13:18:35.875Z,9.15
2019-05-18T13:23:40.319Z,12.23
2019-05-18T13:28:44.661Z,8.70
2019-05-18T13:33:49.032Z,10.58
2019-05-18T13:38:53.364Z,10.93
2019-05-18T13:43:57.708Z,9.03
2019-05-18T13:49:02.072Z,10.60
2019-05-18T13:54:06.460Z,8.93
2019-05-18T13:59:10.805Z,12.68
2019-05-18T14:04:15.168Z,11.53
2019-05-18T14:09:19.506Z,9.23
2019-05-18T14:14:23.856Z,12.15
2019-05-18T14:19:28.232Z,12.18
2019-05-18T14:24:32.565Z,11.83
2019-05-18T14:29:36.927Z,11.88
2019-05-18T14:34:41.295Z,12.82
2019-05-18T14:39:45.722Z,12.55
2019-05-18T14:44:50.190Z,14.63
2019-05-18T14:49:56.637Z,12.68
2019-05-18T14:55:01.095Z,13.10
2019-05-18T15:00:07.938Z,15.15
2019-05-18T15:05:12.703Z,14.35
2019-05-18T15:10:17.429Z,14.85
2019-05-18T15:15:21.911Z,17.70
2019-05-18T15:20:26.263Z,18.25
2019-05-18T15:25:30.656Z,15.20
2019-05-18T15:30:35.017Z,14.40
2019-05-18T15:35:39.389Z,13.95
2019-05-18T15:40:43.923Z,15.98
2019-05-18T15:45:48.301Z,14.50
2019-05-18T15:50:52.660Z,12.35
2019-05-18T15:56:05.278Z,15.30
2019-05-18T16:01:03.261Z,12.10
2019-05-18T16:06:07.647Z,15.13
2019-05-18T16:11:11.998Z,38.85
2019-05-18T16:16:16.349Z,129.97
2019-05-18T16:21:20.707Z,168.50
2019-05-18T16:26:25.099Z,172.37
2019-05-18T16:31:29.535Z,127.65
2019-05-18T16:36:33.962Z,74.50
2019-05-18T16:41:38.306Z,83.10
2019-05-18T16:46:42.679Z,94.80
2019-05-18T16:51:47.065Z,79.53
2019-05-18T16:56:51.429Z,59.10
2019-05-18T17:01:55.902Z,60.28
2019-05-18T17:07:00.242Z,55.08
2019-05-18T17:12:04.671Z,50.05
2019-05-18T17:17:09.040Z,50.05
2019-05-18T17:22:13.397Z,32.40
2019-05-18T17:27:17.762Z,31.37
2019-05-18T17:32:22.132Z,38.50
2019-05-18T17:37:26.633Z,34.90
2019-05-18T17:42:30.985Z,35.13
2019-05-18T17:47:35.451Z,32.15
2019-05-18T17:52:39.855Z,32.75
2019-05-18T17:57:44.196Z,30.52
2019-05-18T18:02:48.591Z,32.03
2019-05-18T18:07:55.525Z,32.25
2019-05-18T18:12:59.066Z,29.45
2019-05-18T18:18:03.421Z,30.52
2019-05-18T18:23:08.484Z,30.00
2019-05-18T18:28:12.995Z,29.48
2019-05-18T18:33:17.435Z,30.02
2019-05-18T18:38:21.780Z,28.25
2019-05-18T18:43:26.214Z,26.93
2019-05-18T18:48:30.568Z,27.98
2019-05-18T18:53:34.939Z,22.15
2019-05-18T18:58:42.419Z,29.05
2019-05-18T19:03:46.961Z,26.20
2019-05-18T19:08:51.328Z,24.25
2019-05-18T19:13:55.673Z,25.80
2019-05-18T19:19:00.027Z,21.27
2019-05-18T19:24:04.475Z,24.82
2019-05-18T19:29:09.098Z,27.35
2019-05-18T19:34:13.660Z,21.62
2019-05-18T19:39:17.967Z,23.38
2019-05-18T19:44:24.045Z,22.40
2019-05-18T19:49:28.525Z,24.27
2019-05-18T19:54:33.002Z,22.67
2019-05-18T19:59:37.362Z,19.73
2019-05-18T20:04:41.755Z,20.60
2019-05-18T20:09:46.169Z,20.50
2019-05-18T20:14:50.603Z,22.87
2019-05-18T20:19:54.967Z,19.15
2019-05-18T20:24:59.355Z,18.32
2019-05-18T20:30:04.664Z,20.55
2019-05-18T20:35:09.005Z,22.27
2019-05-18T20:40:13.899Z,18.02
2019-05-18T20:45:18.340Z,16.85
2019-05-18T20:50:22.685Z,19.42
2019-05-18T20:55:27.023Z,17.92
2019-05-18T21:00:31.383Z,18.30
2019-05-18T21:05:35.764Z,18.17
2019-05-18T21:10:40.116Z,17.80
2019-05-18T21:15:44.520Z,15.20
2019-05-18T21:20:48.961Z,16.42
2019-05-18T21:25:53.359Z,13.90
2019-05-18T21:30:57.671Z,15.68
2019-05-18T21:36:02.036Z,16.12
2019-05-18T21:41:06.451Z,14.70
2019-05-18T21:46:10.790Z,15.35
2019-05-18T21:51:15.149Z,15.80
2019-05-18T21:56:19.502Z,16.97
2019-05-18T22:01:23.832Z,14.40
2019-05-18T22:06:28.182Z,19.57
2019-05-18T22:11:32.527Z,19.65
2019-05-18T22:16:36.887Z,17.90
2019-05-18T22:21:41.245Z,20.08
2019-05-18T22:26:45.596Z,24.87
2019-05-18T22:31:49.942Z,18.95
2019-05-18T22:36:54.286Z,16.87
2019-05-18T22:41:58.648Z,18.07
2019-05-18T22:47:03.004Z,18.42
2019-05-18T22:52:07.460Z,16.97
2019-05-18T22:57:11.820Z,16.73
2019-05-18T23:02:16.168Z,16.12
2019-05-18T23:07:20.525Z,23.95
2019-05-18T23:12:24.904Z,16.90
2019-05-18T23:17:29.263Z,17.85
2019-05-18T23:22:33.607Z,13.10
2019-05-18T23:27:39.510Z,15.95
2019-05-18T23:32:43.867Z,14.07
2019-05-18T23:37:48.238Z,13.72
2019-05-18T23:42:52.555Z,14.73
2019-05-18T23:47:59.485Z,14.38
2019-05-18T23:53:22.341Z,14.73
2019-05-18T23:58:26.676Z,16.87
